Current Weather



TAF Data Links

METAR Data Links

Latest METAR/TAF Data


Available data for KAUS from the past 2 hours
AUSTIN, TX
Metar
KAUS 111153Z 00000KT 10SM CLR 00/M02 A3038 RMK AO2 SLP292 T00001017 10028 21017 58000

11:53 UTC

Wind: 0° 0kt

Visibility: 10 SM

Sky:

Temp: 0 deg C / 32 deg F

Dewpoint: -2 deg C / 28.4 deg F

Pressure: 30.38 inHg

TAF
KAUS 111120Z 1112/1218 18001KT P6SM SKC FM111600 19012KT P6SM BKN250 FM120000 17007KT P6SM FEW025 BKN250 FM121000 19003KT P6SM OVC025


Available data for KEDC from the past 2 hours
AUSTIN EXEC, TX
Metar
KEDC 111155Z AUTO 00000KT 10SM CLR 01/00 A3038 RMK AO2

11:55 UTC

Wind: 0° 0kt

Visibility: 10 SM

Sky:

Temp: 1 deg C / 33.8 deg F

Dewpoint: 0 deg C / 32 deg F

Pressure: 30.38 inHg



Available data for KRYW from the past 2 hours
LAGO VISTA, TX
Metar
KRYW 111155Z AUTO 25007KT 10SM CLR 06/01 A3035 RMK AO2 T00630010 10075 20058

11:55 UTC

Wind: 250° 7kt

Visibility: 10 SM

Sky:

Temp: 6 deg C / 42.8 deg F

Dewpoint: 1 deg C / 33.8 deg F

Pressure: 30.35 inHg